Time;durP1;ratioP1;P1;durP2;ratioP2;P2;SDS_P1;SDS_P2;PMS_P1;PMS_P2;Temp;Humidity;BMP_temperature;BMP_pressure;BME280_temperature;BME280_humidity;BME280_pressure;Samples;Min_cycle;Max_cycle;Signal;HPM_P1;HPM_P2
2022/01/14 00:01:45;;;;;;;78.35;14.90;;;5.50;90.80;;;;;;5014463;28;20176;-30
2022/01/14 00:04:10;;;;;;;53.85;12.77;;;5.50;90.80;;;;;;5014392;28;20022;-29
2022/01/14 00:06:37;;;;;;;34.10;13.02;;;5.50;90.80;;;;;;5014424;28;20500;-29
2022/01/14 00:09:06;;;;;;;53.40;12.85;;;5.50;90.80;;;;;;5014434;28;20052;-29
2022/01/14 00:11:39;;;;;;;35.45;12.82;;;5.50;90.80;;;;;;5014116;28;20026;-29
2022/01/14 00:14:20;;;;;;;30.95;11.55;;;5.50;90.80;;;;;;5014266;28;20026;-31
2022/01/14 00:16:46;;;;;;;54.53;12.18;;;5.50;90.80;;;;;;5014261;28;20058;-29
2022/01/14 00:19:12;;;;;;;32.25;11.77;;;5.50;90.80;;;;;;5014049;28;20390;-29
2022/01/14 00:21:40;;;;;;;47.25;13.68;;;5.50;90.80;;;;;;5014157;28;20050;-28
2022/01/14 00:24:25;;;;;;;41.92;12.75;;;5.50;90.80;;;;;;5014173;28;20026;-31
2022/01/14 00:35:05;;;;;;;47.95;12.20;;;5.40;90.90;;;;;;5013695;28;20107;-29
2022/01/14 00:37:30;;;;;;;37.88;12.23;;;5.40;90.90;;;;;;5013792;28;20022;-29
2022/01/14 00:39:56;;;;;;;46.83;12.50;;;5.40;90.80;;;;;;5013745;28;20037;-28
2022/01/14 00:42:22;;;;;;;25.45;10.82;;;5.40;90.80;;;;;;5013707;28;20534;-31
2022/01/14 00:44:48;;;;;;;31.65;12.45;;;5.40;90.90;;;;;;5013894;28;20026;-31
2022/01/14 00:47:13;;;;;;;36.72;11.82;;;5.40;90.80;;;;;;5028764;28;20116;-28
2022/01/14 00:49:39;;;;;;;32.67;11.45;;;5.40;90.90;;;;;;5013825;28;20514;-31
2022/01/14 00:52:05;;;;;;;24.48;11.15;;;5.50;90.90;;;;;;5013718;28;20067;-29
2022/01/14 00:54:31;;;;;;;65.45;14.25;;;5.50;90.90;;;;;;5013455;28;20026;-29
2022/01/14 00:59:34;;;;;;;39.72;12.65;;;5.50;90.80;;;;;;5013431;28;20025;-30
2022/01/14 01:02:01;;;;;;;27.35;12.48;;;5.50;90.80;;;;;;5013311;28;20562;-29
2022/01/14 01:04:32;;;;;;;22.40;12.45;;;5.50;90.80;;;;;;5013149;28;20041;-30
2022/01/14 01:06:59;;;;;;;26.83;11.02;;;5.50;90.80;;;;;;5013589;28;20042;-34
2022/01/14 01:09:25;;;;;;;36.92;12.35;;;5.50;90.80;;;;;;5013282;28;20500;-29
2022/01/14 01:12:12;;;;;;;22.77;11.60;;;5.60;90.80;;;;;;5013416;28;20030;-33
2022/01/14 01:14:52;;;;;;;28.30;12.15;;;5.60;90.80;;;;;;5013525;28;20418;-30
2022/01/14 01:17:18;;;;;;;34.47;13.00;;;5.70;90.80;;;;;;5013382;28;20033;-31
2022/01/14 01:19:45;;;;;;;28.13;12.10;;;5.70;90.80;;;;;;5013125;28;20472;-30
2022/01/14 01:22:11;;;;;;;41.17;14.95;;;5.70;90.70;;;;;;5012975;28;20113;-29
2022/01/14 01:24:37;;;;;;;26.48;13.55;;;5.70;90.70;;;;;;5013148;28;20057;-29
2022/01/14 01:27:06;;;;;;;36.65;15.68;;;5.60;90.60;;;;;;5011700;28;20077;-30
2022/01/14 01:29:48;;;;;;;27.13;13.45;;;5.70;90.90;;;;;;5013023;28;20064;-33
2022/01/14 01:32:14;;;;;;;26.80;14.10;;;5.60;90.70;;;;;;5013098;28;20493;-29
2022/01/14 01:34:40;;;;;;;35.60;15.27;;;5.60;90.70;;;;;;5012874;28;20050;-32
2022/01/14 01:37:05;;;;;;;26.67;14.32;;;5.60;90.70;;;;;;5013046;28;20026;-29
2022/01/14 01:39:34;;;;;;;31.08;14.38;;;5.60;90.70;;;;;;5012933;28;20387;-32
2022/01/14 01:42:05;;;;;;;30.30;13.43;;;5.60;90.70;;;;;;5012924;28;20160;-32
2022/01/14 01:44:31;;;;;;;31.45;14.32;;;5.60;90.70;;;;;;5013189;28;20405;-31
2022/01/14 01:46:58;;;;;;;32.42;13.68;;;5.60;90.70;;;;;;5012853;28;20120;-27
2022/01/14 01:49:28;;;;;;;32.53;14.05;;;5.50;90.60;;;;;;5013115;28;20097;-31
2022/01/14 01:51:55;;;;;;;27.65;13.75;;;5.50;90.70;;;;;;5012870;28;20049;-29
2022/01/14 01:54:24;;;;;;;39.67;13.32;;;5.50;90.70;;;;;;5012806;28;20149;-29
2022/01/14 01:56:50;;;;;;;29.77;12.95;;;5.50;90.70;;;;;;5012833;28;20109;-29
2022/01/14 01:59:17;;;;;;;27.90;12.88;;;5.50;90.70;;;;;;5012751;28;20128;-29
2022/01/14 02:01:43;;;;;;;38.80;13.90;;;5.50;90.90;;;;;;5012832;28;20371;-28
2022/01/14 02:04:09;;;;;;;30.10;14.35;;;5.50;90.70;;;;;;5012896;28;20033;-29
2022/01/14 02:06:37;;;;;;;29.50;14.02;;;5.50;90.70;;;;;;5012819;28;20521;-29
2022/01/14 02:09:03;;;;;;;30.92;15.05;;;5.50;90.70;;;;;;5012778;28;20061;-31
2022/01/14 02:11:29;;;;;;;39.42;15.73;;;5.50;90.60;;;;;;5012621;28;20077;-29
2022/01/14 02:13:58;;;;;;;34.42;15.32;;;5.50;90.60;;;;;;5011503;28;20478;-34
2022/01/14 02:16:58;;;;;;;29.38;14.32;;;5.50;90.60;;;;;;5016060;28;20018;-31
2022/01/14 02:19:30;;;;;;;35.58;16.88;;;5.40;90.60;;;;;;5016362;28;20033;-30
2022/01/14 02:22:10;;;;;;;41.47;16.35;;;5.40;90.60;;;;;;5016370;28;20166;-30
2022/01/14 02:27:07;;;;;;;45.80;16.75;;;5.30;90.60;;;;;;5016586;28;20065;-30
2022/01/14 02:29:33;;;;;;;35.58;16.08;;;5.30;90.70;;;;;;5016088;28;20075;-29
2022/01/14 02:31:59;;;;;;;40.95;16.50;;;5.20;90.70;;;;;;5016105;28;20470;-30
2022/01/14 02:34:26;;;;;;;59.42;16.70;;;5.20;90.70;;;;;;5015939;28;20057;-32
2022/01/14 02:36:52;;;;;;;55.25;16.30;;;5.20;90.80;;;;;;5016103;28;20577;-30
2022/01/14 02:39:19;;;;;;;32.90;14.57;;;5.20;90.80;;;;;;5016100;28;20022;-32
2022/01/14 02:41:47;;;;;;;27.10;13.68;;;5.20;90.80;;;;;;5016070;28;20022;-30
2022/01/14 02:44:26;;;;;;;31.25;13.60;;;5.20;90.80;;;;;;5015940;28;20056;-30
2022/01/14 02:46:56;;;;;;;71.63;16.27;;;5.20;90.80;;;;;;5016162;28;20044;-29
2022/01/14 02:49:27;;;;;;;43.67;14.45;;;5.20;90.80;;;;;;5015851;28;20469;-30
2022/01/14 02:51:52;;;;;;;63.03;16.35;;;5.20;90.80;;;;;;5015974;28;20041;-29
2022/01/14 02:54:24;;;;;;;36.75;15.23;;;5.20;90.80;;;;;;5016010;28;20451;-29
2022/01/14 02:56:52;;;;;;;39.08;13.77;;;5.20;90.80;;;;;;5016040;28;20026;-29
2022/01/14 02:59:20;;;;;;;32.95;13.77;;;5.30;90.80;;;;;;5015934;28;20025;-30
2022/01/14 03:01:47;;;;;;;24.17;13.10;;;5.30;90.80;;;;;;5014331;28;20030;-29
2022/01/14 03:04:15;;;;;;;33.03;13.13;;;5.30;90.80;;;;;;5015804;28;20030;-29
2022/01/14 03:06:41;;;;;;;34.53;12.73;;;5.40;90.80;;;;;;5015610;28;20036;-29
2022/01/14 03:09:07;;;;;;;33.95;12.85;;;5.40;90.80;;;;;;5015810;28;20477;-30
2022/01/14 03:11:37;;;;;;;24.80;11.18;;;5.40;90.70;;;;;;5015430;28;20032;-32
2022/01/14 03:14:03;;;;;;;29.63;11.73;;;5.40;90.80;;;;;;5015471;28;20389;-30
2022/01/14 03:16:37;;;;;;;27.42;11.63;;;5.50;90.70;;;;;;5015403;28;20021;-29
2022/01/14 03:19:07;;;;;;;23.25;11.90;;;5.40;90.70;;;;;;5015373;28;20072;-28
2022/01/14 03:21:39;;;;;;;27.95;12.07;;;5.40;90.70;;;;;;5015172;28;20018;-29
2022/01/14 03:26:45;;;;;;;26.90;12.25;;;5.50;90.70;;;;;;5015322;28;20041;-29
2022/01/14 03:29:11;;;;;;;19.73;11.43;;;5.50;90.70;;;;;;5015088;28;20030;-30
2022/01/14 03:31:37;;;;;;;30.90;12.40;;;5.50;90.70;;;;;;5015035;28;20030;-30
2022/01/14 03:34:02;;;;;;;27.10;11.75;;;5.50;90.60;;;;;;5014883;28;20038;-29
2022/01/14 03:36:28;;;;;;;24.63;11.95;;;5.50;90.60;;;;;;5014979;28;20109;-28
2022/01/14 03:38:54;;;;;;;31.73;12.82;;;5.50;90.60;;;;;;5015273;28;20069;-32
2022/01/14 03:41:19;;;;;;;29.77;12.93;;;5.50;90.60;;;;;;5014837;28;20363;-32
2022/01/14 03:43:45;;;;;;;28.90;13.05;;;5.50;90.60;;;;;;5014905;28;20066;-29
2022/01/14 03:46:11;;;;;;;24.15;11.10;;;5.50;90.60;;;;;;5014739;28;20025;-32
2022/01/14 03:48:37;;;;;;;33.45;13.38;;;5.40;90.60;;;;;;5014789;28;20516;-31
2022/01/14 03:51:02;;;;;;;26.38;11.90;;;5.40;90.60;;;;;;5014751;28;20036;-30
2022/01/14 03:53:28;;;;;;;37.78;12.75;;;5.40;90.60;;;;;;5014589;28;20105;-29
2022/01/14 03:55:54;;;;;;;45.03;13.98;;;5.40;90.60;;;;;;5029882;28;20033;-28
2022/01/14 03:58:19;;;;;;;36.67;13.30;;;5.50;90.60;;;;;;5014573;28;20018;-30
2022/01/14 04:00:45;;;;;;;28.60;13.10;;;5.40;90.50;;;;;;5014646;28;20022;-29
2022/01/14 04:03:11;;;;;;;45.60;13.27;;;5.40;90.50;;;;;;5014436;28;20498;-30
2022/01/14 04:05:36;;;;;;;31.83;13.32;;;5.40;90.60;;;;;;5014517;28;20037;-29
2022/01/14 04:08:03;;;;;;;81.50;14.15;;;5.40;90.60;;;;;;5029668;28;20026;-30
2022/01/14 04:10:29;;;;;;;27.45;13.05;;;5.40;90.60;;;;;;5014376;28;20516;-30
2022/01/14 04:15:41;;;;;;;37.50;14.35;;;5.40;90.60;;;;;;5014548;28;20136;-29
2022/01/14 04:18:13;;;;;;;39.42;13.75;;;5.40;90.60;;;;;;5014476;28;20030;-31
2022/01/14 04:20:40;;;;;;;31.55;12.73;;;5.30;90.60;;;;;;5014520;28;20482;-31
2022/01/14 04:23:06;;;;;;;29.73;13.85;;;5.40;90.60;;;;;;5012779;28;20100;-28
2022/01/14 04:25:33;;;;;;;41.72;13.27;;;5.40;90.60;;;;;;5014274;28;20542;-31
2022/01/14 04:27:59;;;;;;;40.83;14.07;;;5.40;90.60;;;;;;5013936;28;20022;-30
2022/01/14 04:30:25;;;;;;;42.90;14.13;;;5.30;90.60;;;;;;5014011;28;20045;-29
2022/01/14 04:32:51;;;;;;;42.15;14.07;;;5.40;90.60;;;;;;5014076;28;20474;-30
2022/01/14 04:35:17;;;;;;;38.30;14.27;;;5.30;90.60;;;;;;5013796;28;20114;-30
2022/01/14 04:37:43;;;;;;;42.80;14.57;;;5.30;90.60;;;;;;5013370;28;20105;-32
2022/01/14 04:40:09;;;;;;;48.78;13.73;;;5.30;90.60;;;;;;5012650;28;20112;-31
2022/01/14 04:42:36;;;;;;;36.75;13.15;;;5.30;90.60;;;;;;5013989;28;20097;-30
2022/01/14 04:45:04;;;;;;;38.72;13.45;;;5.30;90.60;;;;;;5013837;28;20403;-30
2022/01/14 04:47:33;;;;;;;38.80;13.98;;;5.40;90.70;;;;;;5013966;28;20496;-30
2022/01/14 04:50:00;;;;;;;41.03;14.52;;;5.40;90.60;;;;;;5013697;28;20026;-29
2022/01/14 04:52:27;;;;;;;33.42;13.43;;;5.40;90.60;;;;;;5013586;28;20040;-29
2022/01/14 04:54:54;;;;;;;35.58;14.80;;;5.40;90.60;;;;;;5013847;28;20418;-29
2022/01/14 04:57:21;;;;;;;36.63;13.77;;;5.40;90.60;;;;;;5013557;28;20121;-30
2022/01/14 04:59:48;;;;;;;35.45;12.85;;;5.40;90.60;;;;;;5013539;28;20488;-29
2022/01/14 05:02:14;;;;;;;28.58;14.30;;;5.30;90.60;;;;;;5013731;28;20076;-29
2022/01/14 05:04:41;;;;;;;35.83;13.43;;;5.30;90.60;;;;;;5012129;28;20421;-30
2022/01/14 05:07:12;;;;;;;37.25;13.05;;;5.30;90.60;;;;;;5013392;28;20034;-30
2022/01/14 05:09:42;;;;;;;39.10;13.32;;;5.30;90.60;;;;;;5013588;28;20022;-30
2022/01/14 05:12:10;;;;;;;34.03;12.60;;;5.30;90.60;;;;;;5013499;28;20030;-30
2022/01/14 05:14:37;;;;;;;30.23;12.50;;;5.30;90.60;;;;;;5013375;28;20068;-33
2022/01/14 05:17:03;;;;;;;53.55;13.95;;;5.30;90.70;;;;;;5013222;28;20029;-29
2022/01/14 05:19:28;;;;;;;47.08;13.38;;;5.30;90.70;;;;;;5013237;28;20050;-30
2022/01/14 05:21:55;;;;;;;36.58;12.65;;;5.30;90.60;;;;;;5013200;28;20069;-36
2022/01/14 05:24:22;;;;;;;34.00;13.07;;;5.30;90.70;;;;;;5013100;28;20530;-29
2022/01/14 05:26:48;;;;;;;34.40;13.38;;;5.30;90.70;;;;;;5013200;28;20018;-29
2022/01/14 05:29:13;;;;;;;24.88;12.05;;;5.30;90.70;;;;;;5013056;28;20025;-29
2022/01/14 05:31:50;;;;;;;41.08;13.40;;;5.30;90.70;;;;;;5013099;28;20022;-30
2022/01/14 05:34:17;;;;;;;30.42;12.30;;;5.40;90.70;;;;;;5013066;28;20034;-29
2022/01/14 05:36:43;;;;;;;38.25;12.90;;;5.40;90.60;;;;;;5013055;28;20026;-30
2022/01/14 05:39:09;;;;;;;28.60;12.55;;;5.30;90.70;;;;;;5013108;28;20049;-30
2022/01/14 05:41:36;;;;;;;30.15;11.65;;;5.30;90.70;;;;;;5028074;28;20496;-30
2022/01/14 05:44:03;;;;;;;42.55;12.77;;;5.40;90.70;;;;;;5012993;28;20029;-35
2022/01/14 05:46:29;;;;;;;34.53;11.27;;;5.50;90.70;;;;;;5012923;28;20061;-30
2022/01/14 05:48:54;;;;;;;28.63;11.57;;;5.50;90.70;;;;;;5012982;28;20073;-34
2022/01/14 05:51:20;;;;;;;38.15;12.45;;;5.50;90.60;;;;;;5031653;28;20022;-29
2022/01/14 05:53:46;;;;;;;28.13;11.82;;;5.50;90.60;;;;;;5016948;28;20053;-30
2022/01/14 05:56:11;;;;;;;30.77;11.45;;;5.50;90.60;;;;;;5016914;28;20026;-30
2022/01/14 05:58:37;;;;;;;50.83;12.57;;;5.60;90.70;;;;;;5032060;28;20036;-28
2022/01/14 06:01:03;;;;;;;26.65;11.07;;;5.50;90.60;;;;;;5016857;28;20104;-29
2022/01/14 06:03:28;;;;;;;29.73;11.75;;;5.60;90.60;;;;;;5017010;28;20470;-30
2022/01/14 06:05:54;;;;;;;28.67;12.00;;;5.60;90.60;;;;;;5016766;28;20080;-31
2022/01/14 06:08:19;;;;;;;25.17;11.07;;;5.60;90.60;;;;;;5016654;28;20034;-31
2022/01/14 06:10:45;;;;;;;55.40;13.05;;;5.50;90.60;;;;;;5016639;28;20412;-35
2022/01/14 06:13:10;;;;;;;35.65;11.55;;;5.60;90.60;;;;;;5016742;28;20018;-31
2022/01/14 06:15:36;;;;;;;41.65;12.63;;;5.60;90.60;;;;;;5016532;28;20022;-32
2022/01/14 06:18:02;;;;;;;35.20;12.02;;;5.60;90.60;;;;;;5016481;28;20497;-32
2022/01/14 06:20:28;;;;;;;29.55;10.23;;;5.60;90.60;;;;;;5016425;28;20078;-33
2022/01/14 06:22:54;;;;;;;36.33;11.52;;;5.60;90.60;;;;;;5016599;28;20438;-31
2022/01/14 06:25:20;;;;;;;34.25;11.30;;;5.50;90.60;;;;;;5016509;28;20057;-33
2022/01/14 06:27:45;;;;;;;44.75;11.82;;;5.60;90.70;;;;;;5016594;28;20018;-31
2022/01/14 06:30:12;;;;;;;31.27;10.88;;;5.60;90.70;;;;;;5016232;28;20088;-36
2022/01/14 06:32:41;;;;;;;24.08;10.20;;;5.60;90.90;;;;;;5016079;28;20034;-33
2022/01/14 06:35:16;;;;;;;34.53;11.65;;;5.60;90.60;;;;;;5015980;28;20058;-30
2022/01/14 06:37:42;;;;;;;38.78;10.73;;;5.60;90.60;;;;;;5016372;28;20022;-31
2022/01/14 06:40:09;;;;;;;31.30;12.15;;;5.60;90.50;;;;;;5016072;28;20026;-31
2022/01/14 06:42:35;;;;;;;98.03;13.38;;;5.60;90.50;;;;;;5016063;28;20446;-30
2022/01/14 06:45:02;;;;;;;56.25;12.80;;;5.60;90.60;;;;;;5016228;28;20097;-28
2022/01/14 06:47:28;;;;;;;54.30;12.23;;;5.60;90.50;;;;;;5015894;28;20022;-36
2022/01/14 06:49:54;;;;;;;25.63;10.70;;;5.50;90.50;;;;;;5015933;28;20026;-30
2022/01/14 06:52:20;;;;;;;24.67;10.45;;;5.50;90.60;;;;;;5015757;28;20064;-29
2022/01/14 06:54:45;;;;;;;51.05;11.88;;;5.50;90.70;;;;;;5016032;28;20382;-31
2022/01/14 06:57:11;;;;;;;45.95;12.13;;;5.50;90.70;;;;;;5015580;28;20033;-29
2022/01/14 06:59:37;;;;;;;28.20;11.00;;;5.50;90.60;;;;;;5015756;28;20024;-30
2022/01/14 07:02:03;;;;;;;28.40;10.73;;;5.40;90.60;;;;;;5015228;28;20028;-29
2022/01/14 07:04:29;;;;;;;112.47;14.73;;;5.40;90.70;;;;;;5015594;28;20048;-31
2022/01/14 07:06:55;;;;;;;30.17;12.07;;;5.50;90.80;;;;;;5015833;28;20474;-30
2022/01/14 07:09:20;;;;;;;74.57;14.80;;;5.50;90.70;;;;;;5015523;28;20026;-29
2022/01/14 07:11:52;;;;;;;35.42;11.57;;;5.50;90.70;;;;;;5015408;28;20037;-28
2022/01/14 07:14:18;;;;;;;51.95;13.68;;;5.50;90.60;;;;;;5015653;28;20409;-28
2022/01/14 07:16:44;;;;;;;33.72;12.82;;;5.50;90.60;;;;;;5015363;28;20033;-28
2022/01/14 07:19:10;;;;;;;38.28;13.40;;;5.40;90.60;;;;;;5015304;28;20030;-29
2022/01/14 07:21:35;;;;;;;33.35;12.18;;;5.40;90.70;;;;;;5015270;28;20109;-31
2022/01/14 07:24:03;;;;;;;38.65;14.38;;;5.40;90.70;;;;;;5015557;28;20026;-31
2022/01/14 07:26:28;;;;;;;29.55;13.35;;;5.40;90.70;;;;;;5013776;28;20034;-32
2022/01/14 07:28:54;;;;;;;33.75;13.10;;;5.30;90.70;;;;;;5015436;28;20473;-33
2022/01/14 07:31:19;;;;;;;30.52;12.00;;;5.40;90.70;;;;;;5015084;28;20493;-29
2022/01/14 07:33:45;;;;;;;37.72;12.50;;;5.30;90.70;;;;;;5014723;28;20497;-32
2022/01/14 07:36:10;;;;;;;66.60;14.88;;;5.30;90.70;;;;;;5015054;28;20104;-30
2022/01/14 07:38:36;;;;;;;38.28;11.93;;;5.30;90.70;;;;;;5014961;28;20037;-30
2022/01/14 07:41:02;;;;;;;42.15;12.45;;;5.30;90.70;;;;;;5015118;28;20443;-30
2022/01/14 07:43:28;;;;;;;41.10;13.68;;;5.30;90.80;;;;;;5014948;28;20068;-29
2022/01/14 07:45:53;;;;;;;32.45;12.00;;;5.30;90.70;;;;;;5013625;28;20119;-29
2022/01/14 07:48:19;;;;;;;41.92;12.45;;;5.30;90.80;;;;;;5014884;28;20037;-30
2022/01/14 07:50:45;;;;;;;33.25;11.63;;;5.30;90.80;;;;;;5015109;28;20036;-31
2022/01/14 07:53:10;;;;;;;34.63;12.05;;;5.30;90.80;;;;;;5014724;28;20056;-33
2022/01/14 07:55:36;;;;;;;44.00;11.55;;;5.30;90.80;;;;;;5013574;28;20029;-35
2022/01/14 07:58:03;;;;;;;35.72;11.68;;;5.40;90.80;;;;;;5014684;28;20025;-33
2022/01/14 08:00:28;;;;;;;25.85;10.95;;;5.40;90.80;;;;;;5014505;28;20063;-29
2022/01/14 08:02:54;;;;;;;35.42;12.20;;;5.40;90.80;;;;;;5014418;28;20036;-29
2022/01/14 08:05:20;;;;;;;54.47;13.48;;;5.40;90.80;;;;;;5014561;28;20037;-31
2022/01/14 08:07:47;;;;;;;25.48;11.90;;;5.40;90.70;;;;;;5014512;28;20057;-30
2022/01/14 08:10:14;;;;;;;19.55;11.13;;;5.40;90.70;;;;;;5014728;28;20052;-29
2022/01/14 08:12:43;;;;;;;25.40;11.68;;;5.40;90.80;;;;;;5013503;28;20033;-30
2022/01/14 08:15:11;;;;;;;36.33;11.90;;;5.40;90.70;;;;;;5014448;28;20156;-31
2022/01/14 08:17:37;;;;;;;39.15;12.48;;;5.50;90.70;;;;;;5014345;28;20044;-31
2022/01/14 08:20:04;;;;;;;42.95;12.95;;;5.40;90.70;;;;;;5014436;28;20026;-30
2022/01/14 08:22:31;;;;;;;24.65;10.95;;;5.40;90.70;;;;;;5014569;28;20173;-30
2022/01/14 08:24:57;;;;;;;20.33;11.15;;;5.40;90.70;;;;;;5014306;28;20034;-31
2022/01/14 08:27:23;;;;;;;30.83;10.70;;;5.40;90.80;;;;;;5014180;28;20076;-28
2022/01/14 08:29:50;;;;;;;29.35;11.80;;;5.50;90.80;;;;;;5014175;28;20030;-30
2022/01/14 08:32:16;;;;;;;24.00;11.70;;;5.50;90.70;;;;;;5014198;28;20104;-30
2022/01/14 08:34:41;;;;;;;23.15;10.45;;;5.50;90.70;;;;;;5014031;28;20153;-30
2022/01/14 08:37:07;;;;;;;40.17;11.80;;;5.60;90.80;;;;;;5012890;28;20061;-31
2022/01/14 08:39:33;;;;;;;29.17;11.88;;;5.60;90.70;;;;;;5014025;28;20028;-33
2022/01/14 08:41:59;;;;;;;24.10;10.98;;;5.60;90.70;;;;;;5014254;28;20017;-31
2022/01/14 08:44:25;;;;;;;17.90;10.77;;;5.70;90.70;;;;;;5013915;28;20030;-29
2022/01/14 08:46:55;;;;;;;19.42;10.13;;;5.70;90.70;;;;;;5013858;28;20432;-30
2022/01/14 08:49:21;;;;;;;22.48;10.60;;;5.70;90.60;;;;;;5013978;28;20108;-30
2022/01/14 08:51:49;;;;;;;21.02;10.20;;;5.70;90.60;;;;;;5013661;28;20445;-29
2022/01/14 08:54:16;;;;;;;20.67;10.57;;;5.80;90.60;;;;;;5013669;28;20584;-29
2022/01/14 08:56:41;;;;;;;22.38;10.57;;;5.70;90.60;;;;;;5013951;28;20389;-29
2022/01/14 08:59:07;;;;;;;20.50;10.50;;;5.80;90.60;;;;;;5013689;28;20025;-29
2022/01/14 09:01:34;;;;;;;21.65;10.95;;;5.80;90.60;;;;;;5013622;28;20053;-31
2022/01/14 09:04:01;;;;;;;26.50;11.77;;;5.80;90.60;;;;;;5013856;28;20497;-30
2022/01/14 09:06:27;;;;;;;24.83;10.82;;;5.80;90.60;;;;;;5013440;28;20030;-31
2022/01/14 09:08:53;;;;;;;25.65;11.43;;;5.90;90.50;;;;;;5013426;28;20025;-33
2022/01/14 09:11:19;;;;;;;26.52;10.73;;;5.90;90.50;;;;;;5013610;28;20469;-32
2022/01/14 09:13:44;;;;;;;20.02;10.13;;;5.90;90.50;;;;;;5013304;28;20022;-31
2022/01/14 09:16:11;;;;;;;22.92;10.40;;;5.90;90.50;;;;;;5011987;28;20022;-30
2022/01/14 09:18:36;;;;;;;19.05;10.40;;;5.90;90.50;;;;;;5013526;28;20030;-29
2022/01/14 09:21:03;;;;;;;19.75;9.65;;;6.00;90.60;;;;;;5028411;28;20096;-31
2022/01/14 09:23:29;;;;;;;18.40;11.10;;;6.00;90.50;;;;;;5012980;28;20077;-31
2022/01/14 09:25:55;;;;;;;19.98;10.77;;;6.00;90.50;;;;;;5013487;28;20041;-31
2022/01/14 09:28:21;;;;;;;19.42;10.05;;;6.10;90.50;;;;;;5013126;28;20441;-29
2022/01/14 09:30:47;;;;;;;23.55;10.48;;;6.10;90.50;;;;;;5013259;28;20030;-29
2022/01/14 09:33:16;;;;;;;16.50;9.90;;;6.10;90.40;;;;;;5012920;28;20022;-29
2022/01/14 09:35:41;;;;;;;21.63;9.88;;;6.10;90.40;;;;;;5013005;28;20073;-27
2022/01/14 09:38:07;;;;;;;18.48;10.93;;;6.20;90.40;;;;;;5013171;28;20057;-30
2022/01/14 09:40:32;;;;;;;19.88;10.82;;;6.20;90.40;;;;;;5013143;28;20478;-33
2022/01/14 09:43:01;;;;;;;30.52;11.18;;;6.20;90.40;;;;;;5013047;28;20436;-28
2022/01/14 09:45:28;;;;;;;20.02;10.45;;;6.20;90.30;;;;;;5013084;28;20505;-29
2022/01/14 09:47:55;;;;;;;17.40;10.15;;;6.20;90.30;;;;;;5011895;28;20497;-26
2022/01/14 09:50:22;;;;;;;21.33;10.57;;;6.20;90.40;;;;;;5012894;28;20018;-28
2022/01/14 09:52:50;;;;;;;19.27;11.43;;;6.20;90.40;;;;;;5012784;28;20076;-30
2022/01/14 09:55:16;;;;;;;19.38;10.68;;;6.20;90.30;;;;;;5012800;28;20021;-30
2022/01/14 09:57:42;;;;;;;25.63;10.88;;;6.20;90.30;;;;;;5012887;28;20026;-29
2022/01/14 10:00:09;;;;;;;21.08;11.25;;;6.20;90.30;;;;;;5012829;28;20072;-29
2022/01/14 10:02:38;;;;;;;19.92;11.02;;;6.10;90.20;;;;;;5012817;28;20426;-33
2022/01/14 10:05:05;;;;;;;20.58;11.40;;;6.10;90.30;;;;;;5012662;28;20022;-29
2022/01/14 10:07:32;;;;;;;18.38;10.60;;;6.10;90.30;;;;;;5011613;28;20034;-29
2022/01/14 10:10:00;;;;;;;35.28;13.43;;;6.10;90.30;;;;;;5011364;28;20022;-30
2022/01/14 10:12:30;;;;;;;28.42;12.75;;;6.20;90.30;;;;;;5012672;28;20398;-29
2022/01/14 10:15:09;;;;;;;20.60;11.60;;;6.20;90.20;;;;;;5013049;28;20515;-32
2022/01/14 10:17:38;;;;;;;19.30;11.05;;;6.10;90.30;;;;;;5012964;28;20423;-30
2022/01/14 10:20:05;;;;;;;23.05;11.30;;;6.20;90.30;;;;;;5012666;28;20046;-34
2022/01/14 10:22:33;;;;;;;23.00;12.48;;;6.20;90.30;;;;;;5012633;28;20057;-29
2022/01/14 10:25:03;;;;;;;18.50;10.57;;;6.20;90.30;;;;;;5012924;28;20101;-29
2022/01/14 10:27:38;;;;;;;22.38;11.57;;;6.30;90.20;;;;;;5012863;28;20033;-30
2022/01/14 10:30:34;;;;;;;19.02;10.48;;;6.30;90.20;;;;;;5011432;28;20080;-30
2022/01/14 10:33:07;;;;;;;17.60;9.57;;;6.30;90.20;;;;;;5012457;28;20092;-29
2022/01/14 10:35:39;;;;;;;19.15;10.82;;;6.30;90.20;;;;;;5012960;28;20405;-28
2022/01/14 10:38:07;;;;;;;19.90;10.95;;;6.30;90.20;;;;;;5016355;28;20104;-29
2022/01/14 10:40:38;;;;;;;20.42;11.48;;;6.30;90.20;;;;;;5016178;28;20057;-30
2022/01/14 10:43:12;;;;;;;16.60;10.68;;;6.30;90.10;;;;;;5016092;28;20466;-29
2022/01/14 10:45:38;;;;;;;21.85;12.00;;;6.30;90.20;;;;;;5015977;28;20393;-29
2022/01/14 10:48:08;;;;;;;20.02;11.10;;;6.30;90.20;;;;;;5016230;28;20496;-31
2022/01/14 10:50:43;;;;;;;19.17;11.32;;;6.30;90.20;;;;;;5015894;28;20080;-29
2022/01/14 10:53:13;;;;;;;20.42;12.32;;;6.30;90.10;;;;;;5016092;28;20377;-30
2022/01/14 10:55:49;;;;;;;20.42;10.90;;;6.40;90.10;;;;;;5015660;28;20014;-28
2022/01/14 10:58:22;;;;;;;21.27;11.05;;;6.40;90.10;;;;;;5015680;28;20080;-29
2022/01/14 11:00:50;;;;;;;23.52;11.48;;;6.40;90.10;;;;;;5015742;28;20044;-30
2022/01/14 11:03:32;;;;;;;22.50;12.07;;;6.50;90.10;;;;;;5015640;28;20433;-31
2022/01/14 11:06:23;;;;;;;20.77;11.55;;;6.50;90.10;;;;;;5014484;28;20049;-33
2022/01/14 11:08:56;;;;;;;20.13;11.63;;;6.50;90.10;;;;;;5015751;28;20030;-30
2022/01/14 11:11:23;;;;;;;22.58;11.68;;;6.50;90.10;;;;;;5014451;28;20032;-29
2022/01/14 11:13:48;;;;;;;21.42;11.25;;;6.50;90.00;;;;;;5015539;28;20026;-33
2022/01/14 11:16:14;;;;;;;28.92;12.20;;;6.50;90.10;;;;;;5015651;28;20076;-30
2022/01/14 11:18:40;;;;;;;24.08;12.20;;;6.50;90.00;;;;;;5015600;28;20382;-31
2022/01/14 11:23:50;;;;;;;22.65;12.48;;;6.40;90.00;;;;;;5015688;28;20037;-29
2022/01/14 11:26:20;;;;;;;21.65;11.93;;;6.40;90.10;;;;;;5015344;28;20029;-29
2022/01/14 11:28:46;;;;;;;23.73;13.05;;;6.40;90.10;;;;;;5015289;28;20046;-30
2022/01/14 11:31:31;;;;;;;22.48;12.07;;;6.40;90.00;;;;;;5015565;28;20072;-29
2022/01/14 11:34:00;;;;;;;20.63;11.38;;;6.30;90.10;;;;;;5015069;28;20018;-30
2022/01/14 11:36:48;;;;;;;22.00;12.23;;;6.40;90.10;;;;;;5015179;28;20025;-30
2022/01/14 11:39:21;;;;;;;20.70;11.18;;;6.40;90.00;;;;;;5015264;28;20386;-31
2022/01/14 11:41:51;;;;;;;19.77;11.80;;;6.40;90.40;;;;;;5015339;28;20018;-34
2022/01/14 11:47:37;;;;;;;18.80;11.80;;;6.50;90.00;;;;;;5014817;28;20057;-32
2022/01/14 11:50:05;;;;;;;18.77;11.50;;;6.50;90.00;;;;;;5015095;28;20156;-31
2022/01/14 11:52:43;;;;;;;21.48;11.68;;;6.50;90.00;;;;;;5015084;28;20088;-29
2022/01/14 11:55:32;;;;;;;18.40;10.95;;;6.60;90.00;;;;;;5014792;28;20026;-30
2022/01/14 11:58:12;;;;;;;20.95;11.63;;;6.60;90.00;;;;;;5013513;28;20026;-30
2022/01/14 12:00:41;;;;;;;20.73;11.88;;;6.70;90.00;;;;;;5013535;28;20037;-30
2022/01/14 12:03:28;;;;;;;21.90;12.30;;;6.70;90.00;;;;;;5014645;28;20030;-31
2022/01/14 12:06:05;;;;;;;22.67;12.52;;;6.80;89.90;;;;;;5014586;28;20022;-29
2022/01/14 12:08:40;;;;;;;22.08;12.65;;;6.80;89.80;;;;;;5014534;28;20719;-29
2022/01/14 12:11:06;;;;;;;21.98;12.43;;;6.70;89.70;;;;;;5013240;28;20406;-30
2022/01/14 12:13:50;;;;;;;21.90;11.70;;;6.70;89.70;;;;;;5014395;28;20034;-29
2022/01/14 12:16:38;;;;;;;23.20;12.18;;;6.80;89.90;;;;;;5014610;28;20026;-29
2022/01/14 12:19:04;;;;;;;22.13;11.55;;;6.80;89.90;;;;;;5014339;28;20103;-33
2022/01/14 12:21:44;;;;;;;21.30;11.88;;;6.80;89.80;;;;;;5014297;28;20073;-28
2022/01/14 12:24:19;;;;;;;19.63;11.75;;;6.80;89.80;;;;;;5012955;28;20030;-29
2022/01/14 12:27:11;;;;;;;21.02;12.02;;;6.80;89.70;;;;;;5014179;28;20083;-31
2022/01/14 12:29:39;;;;;;;20.60;11.55;;;6.80;89.80;;;;;;5014099;28;20486;-29
2022/01/14 12:32:14;;;;;;;22.65;12.50;;;6.90;89.80;;;;;;5013952;28;20022;-29
2022/01/14 12:34:55;;;;;;;20.25;12.27;;;6.90;89.80;;;;;;5013805;28;20061;-30
2022/01/14 12:37:26;;;;;;;20.40;12.18;;;7.00;89.70;;;;;;5013937;28;20038;-30
2022/01/14 12:39:52;;;;;;;20.73;12.77;;;7.00;89.70;;;;;;5013910;28;20022;-30
2022/01/14 12:42:19;;;;;;;22.50;12.32;;;7.00;89.60;;;;;;5013954;28;20533;-33
2022/01/14 12:44:47;;;;;;;21.52;12.25;;;7.00;89.60;;;;;;5014162;28;20018;-32
2022/01/14 12:47:21;;;;;;;21.48;12.45;;;7.00;89.50;;;;;;5013698;28;20148;-32
2022/01/14 12:49:48;;;;;;;21.08;12.20;;;7.00;89.50;;;;;;5014009;28;20034;-32
2022/01/14 12:52:16;;;;;;;23.42;12.10;;;7.10;89.60;;;;;;5012349;28;20029;-30
2022/01/14 12:54:44;;;;;;;21.17;12.50;;;7.10;89.60;;;;;;5012511;28;20038;-31
2022/01/14 12:57:14;;;;;;;22.60;13.70;;;7.10;89.50;;;;;;5013731;28;20025;-31
2022/01/14 12:59:48;;;;;;;23.75;12.45;;;7.10;89.40;;;;;;5013253;28;20470;-31
2022/01/14 13:02:22;;;;;;;22.90;12.35;;;7.00;89.40;;;;;;5013623;28;20022;-32
2022/01/14 13:05:19;;;;;;;22.13;12.82;;;7.00;89.50;;;;;;5013660;28;20017;-39
2022/01/14 13:07:46;;;;;;;21.85;12.45;;;7.10;89.50;;;;;;5013561;28;20045;-31
2022/01/14 13:10:14;;;;;;;22.77;14.07;;;7.10;89.40;;;;;;5013422;28;20550;-31